首页
METAR-TAF:

METAR-TAF

机场 :

玛丽埃塔, 喬治亞, 美国

纬度: 33-55N, 经度: 084-31W, 海拔: 326米

当前天气观测

该预报发布于17分钟前的04:14 UTC
静风
温度 8°C
湿度 100%
气压 1019 hPa
能見度: 16.1公里
多云层高于600英尺
多云层高于3300英尺

METAR: KMGE 190414Z AUTO 00000KT 10SM BKN006 BKN033 08/08 A3009 RMK AO2 SHRAE0356DZB0356E0357 CIG 006V033 SLP193 $

时间: 23:31 (04:31 UTC)

预报

该预报发布于1小时和42分钟前的02:49 UTC
预报有效从19日的 02点(UTC)到 20日的 04点(UTC)
风速9节,风向西北
能見度: 6000
散云层高于200英尺
多云层高于900英尺
阴天层高于1500英尺
小阵雨, 轻雾
短暂存在
从 19日的 02点(UTC)到 19日的 03点(UTC)
风速12节,风向,有时为18节阵风
能見度: 3200
多云层高于200英尺
阴天层高于700英尺
阵雨, 轻雾
成为
从 19日的 02点(UTC)到 19日的 03点(UTC)
风速9节,风向
能見度: 3200
散云层高于200英尺
多云层高于700英尺
阴天层高于1200英尺
小阵雨, 轻雾
成为
从 19日的 09点(UTC)到 19日的 10点(UTC)
风速15节,风向西转西北,有时为25节阵风
能见度10公里或以上
少量云层高于2000英尺
少量云层高于10000英尺
少量云层高于25000英尺

TAF: KMGE 190249Z 1902/2004 32009KT 6000 -SHRA BR SCT002 BKN009 OVC015 QNH3009INS TEMPO 1902/1903 35012G18KT 3200 SHRA BR BKN002 OVC007 BECMG 1902/1903 35009KT 3200 -SHRA BR SCT002 BKN007 OVC012 QNH3004INS BECMG 1909/1910 30015G25KT 9999 NSW FEW020 FEW100 FEW250 520009 520901 QNH3000INS TX09/1902Z TN04/1912Z

超过4000个机场的气象观测和天气预报(METAR&TAF报告)。

可查询的气象台以黄色和红色小点在地图上表示。

将鼠标移到小点上方,可查看气象台名称。

然后点击查看天气观测和预报。

如需切换地图:点击带黑十字的绿色按钮放大地图;点击带横线的绿色按钮缩小地图;或者点击绿色箭头查看邻近地区的地图。


METAR-TAF: